sensor_id;sensor_type;location;lat;lon;timestamp;P1;durP1;ratioP1;P2;durP2;ratioP2
11121;SDS011;5615;49.304;10.576;2024-02-04T00:01:48;2.20;;;2.00;;
11121;SDS011;5615;49.304;10.576;2024-02-04T00:04:16;2.37;;;2.10;;
11121;SDS011;5615;49.304;10.576;2024-02-04T00:06:42;2.20;;;1.80;;
11121;SDS011;5615;49.304;10.576;2024-02-04T00:09:09;2.17;;;1.97;;
11121;SDS011;5615;49.304;10.576;2024-02-04T00:11:35;2.23;;;1.87;;
11121;SDS011;5615;49.304;10.576;2024-02-04T00:14:02;1.97;;;1.80;;
11121;SDS011;5615;49.304;10.576;2024-02-04T00:16:29;2.40;;;2.20;;
11121;SDS011;5615;49.304;10.576;2024-02-04T00:18:55;2.90;;;2.00;;
11121;SDS011;5615;49.304;10.576;2024-02-04T00:21:23;2.50;;;2.10;;
11121;SDS011;5615;49.304;10.576;2024-02-04T00:23:50;2.07;;;1.87;;
11121;SDS011;5615;49.304;10.576;2024-02-04T00:26:16;2.50;;;2.30;;
11121;SDS011;5615;49.304;10.576;2024-02-04T00:28:43;3.30;;;2.40;;
11121;SDS011;5615;49.304;10.576;2024-02-04T00:31:10;3.13;;;2.30;;
11121;SDS011;5615;49.304;10.576;2024-02-04T00:33:36;3.10;;;2.80;;
11121;SDS011;5615;49.304;10.576;2024-02-04T00:36:03;3.37;;;3.07;;
11121;SDS011;5615;49.304;10.576;2024-02-04T00:38:32;3.20;;;2.90;;
11121;SDS011;5615;49.304;10.576;2024-02-04T00:40:58;3.37;;;2.53;;
11121;SDS011;5615;49.304;10.576;2024-02-04T00:43:25;2.73;;;2.53;;
11121;SDS011;5615;49.304;10.576;2024-02-04T00:45:52;3.20;;;2.90;;
11121;SDS011;5615;49.304;10.576;2024-02-04T00:48:21;3.70;;;2.50;;
11121;SDS011;5615;49.304;10.576;2024-02-04T00:50:48;3.10;;;2.57;;
11121;SDS011;5615;49.304;10.576;2024-02-04T00:53:14;3.40;;;3.10;;
11121;SDS011;5615;49.304;10.576;2024-02-04T00:55:42;2.93;;;2.70;;
11121;SDS011;5615;49.304;10.576;2024-02-04T00:58:09;3.30;;;3.00;;
11121;SDS011;5615;49.304;10.576;2024-02-04T01:00:36;3.20;;;2.90;;
11121;SDS011;5615;49.304;10.576;2024-02-04T01:03:03;3.33;;;3.03;;
11121;SDS011;5615;49.304;10.576;2024-02-04T01:05:30;3.37;;;3.07;;
11121;SDS011;5615;49.304;10.576;2024-02-04T01:07:56;3.60;;;3.23;;
11121;SDS011;5615;49.304;10.576;2024-02-04T01:10:23;3.97;;;3.57;;
11121;SDS011;5615;49.304;10.576;2024-02-04T01:12:51;3.87;;;3.10;;
11121;SDS011;5615;49.304;10.576;2024-02-04T01:15:17;3.77;;;3.20;;
11121;SDS011;5615;49.304;10.576;2024-02-04T01:17:44;3.20;;;2.97;;
11121;SDS011;5615;49.304;10.576;2024-02-04T01:20:10;3.30;;;3.00;;
11121;SDS011;5615;49.304;10.576;2024-02-04T01:22:37;7.97;;;3.27;;
11121;SDS011;5615;49.304;10.576;2024-02-04T01:25:04;4.00;;;2.80;;
11121;SDS011;5615;49.304;10.576;2024-02-04T01:27:32;2.97;;;2.70;;
11121;SDS011;5615;49.304;10.576;2024-02-04T01:30:00;3.07;;;2.40;;
11121;SDS011;5615;49.304;10.576;2024-02-04T01:32:27;2.60;;;2.40;;
11121;SDS011;5615;49.304;10.576;2024-02-04T01:34:53;2.80;;;2.40;;
11121;SDS011;5615;49.304;10.576;2024-02-04T01:37:20;2.70;;;2.50;;
11121;SDS011;5615;49.304;10.576;2024-02-04T01:39:47;2.60;;;2.20;;
11121;SDS011;5615;49.304;10.576;2024-02-04T01:42:13;2.80;;;2.53;;
11121;SDS011;5615;49.304;10.576;2024-02-04T01:44:40;2.63;;;2.33;;
11121;SDS011;5615;49.304;10.576;2024-02-04T01:47:08;2.93;;;2.30;;
11121;SDS011;5615;49.304;10.576;2024-02-04T01:49:35;2.47;;;2.27;;
11121;SDS011;5615;49.304;10.576;2024-02-04T01:52:03;3.63;;;2.60;;
11121;SDS011;5615;49.304;10.576;2024-02-04T01:54:31;2.60;;;2.40;;
11121;SDS011;5615;49.304;10.576;2024-02-04T01:56:59;2.80;;;2.60;;
11121;SDS011;5615;49.304;10.576;2024-02-04T01:59:26;2.70;;;2.50;;
11121;SDS011;5615;49.304;10.576;2024-02-04T02:01:55;3.00;;;2.70;;
11121;SDS011;5615;49.304;10.576;2024-02-04T02:04:24;3.00;;;2.70;;
11121;SDS011;5615;49.304;10.576;2024-02-04T02:06:51;3.00;;;2.70;;
11121;SDS011;5615;49.304;10.576;2024-02-04T02:09:19;3.40;;;3.07;;
11121;SDS011;5615;49.304;10.576;2024-02-04T02:11:47;3.40;;;3.10;;
11121;SDS011;5615;49.304;10.576;2024-02-04T02:14:18;3.40;;;3.10;;
11121;SDS011;5615;49.304;10.576;2024-02-04T02:16:49;4.40;;;4.00;;
11121;SDS011;5615;49.304;10.576;2024-02-04T02:19:21;4.70;;;3.80;;
11121;SDS011;5615;49.304;10.576;2024-02-04T02:22:02;4.23;;;3.80;;
11121;SDS011;5615;49.304;10.576;2024-02-04T02:24:38;4.73;;;4.17;;
11121;SDS011;5615;49.304;10.576;2024-02-04T02:27:05;5.50;;;4.10;;
11121;SDS011;5615;49.304;10.576;2024-02-04T02:29:31;6.33;;;4.47;;
11121;SDS011;5615;49.304;10.576;2024-02-04T02:31:58;5.37;;;4.57;;
11121;SDS011;5615;49.304;10.576;2024-02-04T02:34:28;4.53;;;4.03;;
11121;SDS011;5615;49.304;10.576;2024-02-04T02:36:56;6.83;;;4.30;;
11121;SDS011;5615;49.304;10.576;2024-02-04T02:39:27;5.07;;;4.47;;
11121;SDS011;5615;49.304;10.576;2024-02-04T02:41:59;5.80;;;5.00;;
11121;SDS011;5615;49.304;10.576;2024-02-04T02:44:27;4.97;;;4.47;;
11121;SDS011;5615;49.304;10.576;2024-02-04T02:46:54;6.70;;;4.77;;
11121;SDS011;5615;49.304;10.576;2024-02-04T02:49:23;4.93;;;4.37;;
11121;SDS011;5615;49.304;10.576;2024-02-04T02:51:49;4.50;;;4.10;;
11121;SDS011;5615;49.304;10.576;2024-02-04T02:54:16;4.30;;;3.90;;
11121;SDS011;5615;49.304;10.576;2024-02-04T02:56:42;4.53;;;4.00;;
11121;SDS011;5615;49.304;10.576;2024-02-04T02:59:10;4.50;;;4.10;;
11121;SDS011;5615;49.304;10.576;2024-02-04T03:01:38;4.87;;;4.37;;
11121;SDS011;5615;49.304;10.576;2024-02-04T03:04:05;6.10;;;3.73;;
11121;SDS011;5615;49.304;10.576;2024-02-04T03:06:32;5.80;;;4.00;;
11121;SDS011;5615;49.304;10.576;2024-02-04T03:08:58;4.57;;;3.93;;
11121;SDS011;5615;49.304;10.576;2024-02-04T03:11:25;4.40;;;3.57;;
11121;SDS011;5615;49.304;10.576;2024-02-04T03:13:52;4.67;;;3.70;;
11121;SDS011;5615;49.304;10.576;2024-02-04T03:16:20;3.67;;;3.37;;
11121;SDS011;5615;49.304;10.576;2024-02-04T03:18:46;4.13;;;3.43;;
11121;SDS011;5615;49.304;10.576;2024-02-04T03:21:13;3.93;;;3.53;;
11121;SDS011;5615;49.304;10.576;2024-02-04T03:23:40;4.00;;;3.47;;
11121;SDS011;5615;49.304;10.576;2024-02-04T03:26:08;3.77;;;3.30;;
11121;SDS011;5615;49.304;10.576;2024-02-04T03:28:34;3.43;;;3.13;;
11121;SDS011;5615;49.304;10.576;2024-02-04T03:31:01;4.37;;;3.17;;
11121;SDS011;5615;49.304;10.576;2024-02-04T03:33:29;4.30;;;3.70;;
11121;SDS011;5615;49.304;10.576;2024-02-04T03:35:56;4.00;;;3.47;;
11121;SDS011;5615;49.304;10.576;2024-02-04T03:38:22;4.87;;;3.23;;
11121;SDS011;5615;49.304;10.576;2024-02-04T03:40:49;3.63;;;2.97;;
11121;SDS011;5615;49.304;10.576;2024-02-04T03:43:15;4.07;;;3.67;;
11121;SDS011;5615;49.304;10.576;2024-02-04T03:45:42;4.07;;;3.30;;
11121;SDS011;5615;49.304;10.576;2024-02-04T03:48:09;4.00;;;3.60;;
11121;SDS011;5615;49.304;10.576;2024-02-04T03:50:37;3.73;;;3.10;;
11121;SDS011;5615;49.304;10.576;2024-02-04T03:53:03;3.77;;;3.40;;
11121;SDS011;5615;49.304;10.576;2024-02-04T03:55:30;4.00;;;3.53;;
11121;SDS011;5615;49.304;10.576;2024-02-04T03:57:57;3.97;;;3.67;;
11121;SDS011;5615;49.304;10.576;2024-02-04T04:00:24;3.83;;;3.43;;
11121;SDS011;5615;49.304;10.576;2024-02-04T04:02:50;3.80;;;3.23;;
11121;SDS011;5615;49.304;10.576;2024-02-04T04:05:16;3.97;;;3.57;;
11121;SDS011;5615;49.304;10.576;2024-02-04T04:07:44;4.10;;;3.70;;
11121;SDS011;5615;49.304;10.576;2024-02-04T04:10:11;4.63;;;3.00;;
11121;SDS011;5615;49.304;10.576;2024-02-04T04:12:38;3.57;;;3.13;;
11121;SDS011;5615;49.304;10.576;2024-02-04T04:15:05;3.30;;;3.00;;
11121;SDS011;5615;49.304;10.576;2024-02-04T04:17:32;3.23;;;2.60;;
11121;SDS011;5615;49.304;10.576;2024-02-04T04:19:59;3.00;;;2.70;;
11121;SDS011;5615;49.304;10.576;2024-02-04T04:22:25;3.13;;;2.83;;
11121;SDS011;5615;49.304;10.576;2024-02-04T04:24:53;3.10;;;2.60;;
11121;SDS011;5615;49.304;10.576;2024-02-04T04:27:20;4.00;;;3.10;;
11121;SDS011;5615;49.304;10.576;2024-02-04T04:29:46;3.00;;;2.60;;
11121;SDS011;5615;49.304;10.576;2024-02-04T04:32:13;3.33;;;2.80;;
11121;SDS011;5615;49.304;10.576;2024-02-04T04:34:40;3.00;;;2.70;;
11121;SDS011;5615;49.304;10.576;2024-02-04T04:37:06;2.63;;;2.30;;
11121;SDS011;5615;49.304;10.576;2024-02-04T04:39:33;3.33;;;2.40;;
11121;SDS011;5615;49.304;10.576;2024-02-04T04:42:01;2.73;;;2.30;;
11121;SDS011;5615;49.304;10.576;2024-02-04T04:44:27;2.50;;;2.30;;
11121;SDS011;5615;49.304;10.576;2024-02-04T04:46:54;3.00;;;2.23;;
11121;SDS011;5615;49.304;10.576;2024-02-04T04:49:21;3.90;;;2.23;;
11121;SDS011;5615;49.304;10.576;2024-02-04T04:51:47;3.00;;;2.20;;
11121;SDS011;5615;49.304;10.576;2024-02-04T04:54:14;2.43;;;2.10;;
11121;SDS011;5615;49.304;10.576;2024-02-04T04:56:41;5.47;;;2.30;;
11121;SDS011;5615;49.304;10.576;2024-02-04T04:59:09;2.20;;;2.00;;
11121;SDS011;5615;49.304;10.576;2024-02-04T05:01:36;2.60;;;2.00;;
11121;SDS011;5615;49.304;10.576;2024-02-04T05:04:02;2.03;;;1.83;;
11121;SDS011;5615;49.304;10.576;2024-02-04T05:06:29;1.73;;;1.60;;
11121;SDS011;5615;49.304;10.576;2024-02-04T05:08:56;2.50;;;1.67;;
11121;SDS011;5615;49.304;10.576;2024-02-04T05:11:22;1.93;;;1.73;;
11121;SDS011;5615;49.304;10.576;2024-02-04T05:13:49;1.63;;;1.50;;
11121;SDS011;5615;49.304;10.576;2024-02-04T05:16:17;1.50;;;1.40;;
11121;SDS011;5615;49.304;10.576;2024-02-04T05:18:43;1.40;;;1.30;;
11121;SDS011;5615;49.304;10.576;2024-02-04T05:21:10;1.53;;;1.43;;
11121;SDS011;5615;49.304;10.576;2024-02-04T05:23:37;1.40;;;1.20;;
11121;SDS011;5615;49.304;10.576;2024-02-04T05:26:03;1.70;;;1.50;;
11121;SDS011;5615;49.304;10.576;2024-02-04T05:28:31;1.57;;;1.47;;
11121;SDS011;5615;49.304;10.576;2024-02-04T05:30:57;1.63;;;1.50;;
11121;SDS011;5615;49.304;10.576;2024-02-04T05:33:25;4.13;;;1.53;;
11121;SDS011;5615;49.304;10.576;2024-02-04T05:35:52;1.73;;;1.63;;
11121;SDS011;5615;49.304;10.576;2024-02-04T05:38:19;2.00;;;1.80;;
11121;SDS011;5615;49.304;10.576;2024-02-04T05:40:47;2.20;;;1.77;;
11121;SDS011;5615;49.304;10.576;2024-02-04T05:43:13;1.90;;;1.70;;
11121;SDS011;5615;49.304;10.576;2024-02-04T05:45:41;2.00;;;1.60;;
11121;SDS011;5615;49.304;10.576;2024-02-04T05:48:08;2.03;;;1.83;;
11121;SDS011;5615;49.304;10.576;2024-02-04T05:50:36;1.90;;;1.60;;
11121;SDS011;5615;49.304;10.576;2024-02-04T05:53:02;2.23;;;1.70;;
11121;SDS011;5615;49.304;10.576;2024-02-04T05:55:29;2.10;;;1.90;;
11121;SDS011;5615;49.304;10.576;2024-02-04T05:57:56;2.30;;;2.07;;
11121;SDS011;5615;49.304;10.576;2024-02-04T06:00:23;2.10;;;1.90;;
11121;SDS011;5615;49.304;10.576;2024-02-04T06:02:51;2.10;;;1.90;;
11121;SDS011;5615;49.304;10.576;2024-02-04T06:05:18;1.90;;;1.80;;
11121;SDS011;5615;49.304;10.576;2024-02-04T06:07:46;1.70;;;1.60;;
11121;SDS011;5615;49.304;10.576;2024-02-04T06:10:12;2.23;;;1.80;;
11121;SDS011;5615;49.304;10.576;2024-02-04T06:12:39;1.47;;;1.37;;
11121;SDS011;5615;49.304;10.576;2024-02-04T06:15:11;1.80;;;1.60;;
11121;SDS011;5615;49.304;10.576;2024-02-04T06:17:39;5.20;;;3.07;;
11121;SDS011;5615;49.304;10.576;2024-02-04T06:20:06;1.90;;;1.80;;
11121;SDS011;5615;49.304;10.576;2024-02-04T06:22:33;1.40;;;1.30;;
11121;SDS011;5615;49.304;10.576;2024-02-04T06:25:01;1.80;;;1.70;;
11121;SDS011;5615;49.304;10.576;2024-02-04T06:27:28;1.83;;;1.40;;
11121;SDS011;5615;49.304;10.576;2024-02-04T06:29:55;1.60;;;1.40;;
11121;SDS011;5615;49.304;10.576;2024-02-04T06:32:22;1.57;;;1.47;;
11121;SDS011;5615;49.304;10.576;2024-02-04T06:34:49;2.33;;;1.43;;
11121;SDS011;5615;49.304;10.576;2024-02-04T06:37:16;1.70;;;1.40;;
11121;SDS011;5615;49.304;10.576;2024-02-04T06:39:42;1.30;;;1.20;;
11121;SDS011;5615;49.304;10.576;2024-02-04T06:42:10;1.50;;;1.37;;
11121;SDS011;5615;49.304;10.576;2024-02-04T06:44:37;1.13;;;1.03;;
11121;SDS011;5615;49.304;10.576;2024-02-04T06:47:04;1.40;;;1.30;;
11121;SDS011;5615;49.304;10.576;2024-02-04T06:49:30;1.60;;;1.23;;
11121;SDS011;5615;49.304;10.576;2024-02-04T06:51:57;1.30;;;1.20;;
11121;SDS011;5615;49.304;10.576;2024-02-04T06:54:24;1.83;;;1.10;;
11121;SDS011;5615;49.304;10.576;2024-02-04T06:56:50;1.37;;;1.27;;
11121;SDS011;5615;49.304;10.576;2024-02-04T06:59:18;1.20;;;1.10;;
11121;SDS011;5615;49.304;10.576;2024-02-04T07:01:45;1.30;;;1.20;;
11121;SDS011;5615;49.304;10.576;2024-02-04T07:04:12;1.40;;;1.30;;
11121;SDS011;5615;49.304;10.576;2024-02-04T07:06:39;1.13;;;1.10;;
11121;SDS011;5615;49.304;10.576;2024-02-04T07:09:05;1.43;;;1.33;;
11121;SDS011;5615;49.304;10.576;2024-02-04T07:11:32;1.90;;;1.20;;
11121;SDS011;5615;49.304;10.576;2024-02-04T07:13:58;1.40;;;1.30;;
11121;SDS011;5615;49.304;10.576;2024-02-04T07:16:26;1.40;;;1.30;;
11121;SDS011;5615;49.304;10.576;2024-02-04T07:18:54;1.40;;;1.30;;
11121;SDS011;5615;49.304;10.576;2024-02-04T07:21:20;1.60;;;1.20;;
11121;SDS011;5615;49.304;10.576;2024-02-04T07:23:47;1.20;;;1.10;;
11121;SDS011;5615;49.304;10.576;2024-02-04T07:26:13;1.30;;;1.20;;
11121;SDS011;5615;49.304;10.576;2024-02-04T07:28:40;1.20;;;1.10;;
11121;SDS011;5615;49.304;10.576;2024-02-04T07:31:07;1.77;;;1.30;;
11121;SDS011;5615;49.304;10.576;2024-02-04T07:33:35;1.50;;;1.30;;
11121;SDS011;5615;49.304;10.576;2024-02-04T07:36:01;1.20;;;1.10;;
11121;SDS011;5615;49.304;10.576;2024-02-04T07:38:28;1.40;;;1.20;;
11121;SDS011;5615;49.304;10.576;2024-02-04T07:40:55;2.50;;;1.10;;
11121;SDS011;5615;49.304;10.576;2024-02-04T07:43:24;1.10;;;1.00;;
11121;SDS011;5615;49.304;10.576;2024-02-04T07:45:51;1.10;;;1.00;;
11121;SDS011;5615;49.304;10.576;2024-02-04T07:48:18;1.10;;;1.00;;
11121;SDS011;5615;49.304;10.576;2024-02-04T07:50:46;1.10;;;1.00;;
11121;SDS011;5615;49.304;10.576;2024-02-04T07:53:13;0.97;;;0.97;;
11121;SDS011;5615;49.304;10.576;2024-02-04T07:55:40;1.10;;;1.00;;
11121;SDS011;5615;49.304;10.576;2024-02-04T07:58:06;1.20;;;1.10;;
11121;SDS011;5615;49.304;10.576;2024-02-04T08:00:33;1.20;;;1.10;;
11121;SDS011;5615;49.304;10.576;2024-02-04T08:03:00;1.20;;;1.00;;
11121;SDS011;5615;49.304;10.576;2024-02-04T08:05:26;0.90;;;0.90;;
11121;SDS011;5615;49.304;10.576;2024-02-04T08:07:55;1.30;;;1.20;;
11121;SDS011;5615;49.304;10.576;2024-02-04T08:10:21;2.93;;;1.20;;
11121;SDS011;5615;49.304;10.576;2024-02-04T08:12:48;1.27;;;1.17;;
11121;SDS011;5615;49.304;10.576;2024-02-04T08:15:16;2.03;;;1.07;;
11121;SDS011;5615;49.304;10.576;2024-02-04T08:17:43;1.30;;;1.10;;
11121;SDS011;5615;49.304;10.576;2024-02-04T08:20:10;1.07;;;1.00;;
11121;SDS011;5615;49.304;10.576;2024-02-04T08:22:37;1.60;;;1.20;;
11121;SDS011;5615;49.304;10.576;2024-02-04T08:25:05;1.20;;;0.93;;
11121;SDS011;5615;49.304;10.576;2024-02-04T08:27:32;1.10;;;1.00;;
11121;SDS011;5615;49.304;10.576;2024-02-04T08:29:59;1.20;;;1.10;;
11121;SDS011;5615;49.304;10.576;2024-02-04T08:32:25;1.10;;;1.00;;
11121;SDS011;5615;49.304;10.576;2024-02-04T08:34:52;1.80;;;1.13;;
11121;SDS011;5615;49.304;10.576;2024-02-04T08:37:18;1.20;;;1.10;;
11121;SDS011;5615;49.304;10.576;2024-02-04T08:39:46;1.90;;;1.03;;
11121;SDS011;5615;49.304;10.576;2024-02-04T08:42:14;1.23;;;1.00;;
11121;SDS011;5615;49.304;10.576;2024-02-04T08:44:41;0.80;;;0.80;;
11121;SDS011;5615;49.304;10.576;2024-02-04T08:47:08;0.70;;;0.70;;
11121;SDS011;5615;49.304;10.576;2024-02-04T08:49:37;1.20;;;1.10;;
11121;SDS011;5615;49.304;10.576;2024-02-04T08:52:04;2.83;;;1.10;;
11121;SDS011;5615;49.304;10.576;2024-02-04T08:54:31;0.90;;;0.90;;
11121;SDS011;5615;49.304;10.576;2024-02-04T08:56:58;3.43;;;1.30;;
11121;SDS011;5615;49.304;10.576;2024-02-04T08:59:26;1.90;;;1.80;;
11121;SDS011;5615;49.304;10.576;2024-02-04T09:01:52;2.60;;;1.10;;
11121;SDS011;5615;49.304;10.576;2024-02-04T09:04:19;1.10;;;1.00;;
11121;SDS011;5615;49.304;10.576;2024-02-04T09:06:46;0.90;;;0.90;;
11121;SDS011;5615;49.304;10.576;2024-02-04T09:09:12;1.00;;;1.00;;
11121;SDS011;5615;49.304;10.576;2024-02-04T09:11:39;1.30;;;1.20;;
11121;SDS011;5615;49.304;10.576;2024-02-04T09:14:05;1.07;;;0.97;;
11121;SDS011;5615;49.304;10.576;2024-02-04T09:16:33;1.30;;;1.00;;
11121;SDS011;5615;49.304;10.576;2024-02-04T09:19:03;1.27;;;1.07;;
11121;SDS011;5615;49.304;10.576;2024-02-04T09:21:30;1.10;;;1.00;;
11121;SDS011;5615;49.304;10.576;2024-02-04T09:23:57;0.90;;;0.90;;
11121;SDS011;5615;49.304;10.576;2024-02-04T09:26:23;1.10;;;1.00;;
11121;SDS011;5615;49.304;10.576;2024-02-04T09:28:50;2.00;;;1.73;;
11121;SDS011;5615;49.304;10.576;2024-02-04T09:31:17;1.93;;;1.73;;
11121;SDS011;5615;49.304;10.576;2024-02-04T09:33:45;1.27;;;1.17;;
11121;SDS011;5615;49.304;10.576;2024-02-04T09:36:11;1.33;;;1.10;;
11121;SDS011;5615;49.304;10.576;2024-02-04T09:38:38;2.07;;;1.00;;
11121;SDS011;5615;49.304;10.576;2024-02-04T09:41:04;1.10;;;1.00;;
11121;SDS011;5615;49.304;10.576;2024-02-04T09:43:31;1.10;;;1.00;;
11121;SDS011;5615;49.304;10.576;2024-02-04T09:45:58;1.30;;;0.90;;
11121;SDS011;5615;49.304;10.576;2024-02-04T09:48:26;1.17;;;1.00;;
11121;SDS011;5615;49.304;10.576;2024-02-04T09:50:58;0.90;;;0.90;;
11121;SDS011;5615;49.304;10.576;2024-02-04T09:53:28;0.90;;;0.90;;
11121;SDS011;5615;49.304;10.576;2024-02-04T09:55:59;1.10;;;1.00;;
11121;SDS011;5615;49.304;10.576;2024-02-04T09:58:27;0.90;;;0.90;;
11121;SDS011;5615;49.304;10.576;2024-02-04T10:00:54;1.00;;;0.90;;
11121;SDS011;5615;49.304;10.576;2024-02-04T10:03:21;0.73;;;0.73;;
11121;SDS011;5615;49.304;10.576;2024-02-04T10:05:48;0.80;;;0.80;;
11121;SDS011;5615;49.304;10.576;2024-02-04T10:08:16;1.10;;;0.90;;
11121;SDS011;5615;49.304;10.576;2024-02-04T10:10:42;1.20;;;0.90;;
11121;SDS011;5615;49.304;10.576;2024-02-04T10:13:09;0.80;;;0.80;;
11121;SDS011;5615;49.304;10.576;2024-02-04T10:15:36;0.83;;;0.83;;
11121;SDS011;5615;49.304;10.576;2024-02-04T10:18:03;1.10;;;0.90;;
11121;SDS011;5615;49.304;10.576;2024-02-04T10:20:30;0.90;;;0.90;;
11121;SDS011;5615;49.304;10.576;2024-02-04T10:22:57;0.80;;;0.80;;
11121;SDS011;5615;49.304;10.576;2024-02-04T10:25:25;1.60;;;1.03;;
11121;SDS011;5615;49.304;10.576;2024-02-04T10:27:52;1.13;;;0.90;;
11121;SDS011;5615;49.304;10.576;2024-02-04T10:30:20;0.80;;;0.80;;
11121;SDS011;5615;49.304;10.576;2024-02-04T10:32:47;0.80;;;0.80;;
11121;SDS011;5615;49.304;10.576;2024-02-04T10:35:16;1.10;;;1.00;;
11121;SDS011;5615;49.304;10.576;2024-02-04T10:37:44;1.33;;;1.00;;
11121;SDS011;5615;49.304;10.576;2024-02-04T10:40:10;1.73;;;0.77;;
11121;SDS011;5615;49.304;10.576;2024-02-04T10:42:39;0.67;;;0.67;;
11121;SDS011;5615;49.304;10.576;2024-02-04T10:45:09;5.57;;;1.13;;
11121;SDS011;5615;49.304;10.576;2024-02-04T10:47:37;1.43;;;0.90;;
11121;SDS011;5615;49.304;10.576;2024-02-04T10:50:05;1.00;;;0.90;;
11121;SDS011;5615;49.304;10.576;2024-02-04T10:52:35;1.27;;;1.17;;
11121;SDS011;5615;49.304;10.576;2024-02-04T10:55:04;1.20;;;1.10;;
11121;SDS011;5615;49.304;10.576;2024-02-04T10:57:34;1.13;;;0.97;;
11121;SDS011;5615;49.304;10.576;2024-02-04T11:00:03;1.23;;;1.00;;
11121;SDS011;5615;49.304;10.576;2024-02-04T11:02:33;1.10;;;1.00;;
11121;SDS011;5615;49.304;10.576;2024-02-04T11:05:00;1.37;;;1.00;;
11121;SDS011;5615;49.304;10.576;2024-02-04T11:07:29;2.43;;;1.00;;
11121;SDS011;5615;49.304;10.576;2024-02-04T11:09:58;0.90;;;0.90;;
11121;SDS011;5615;49.304;10.576;2024-02-04T11:12:26;1.10;;;1.00;;
11121;SDS011;5615;49.304;10.576;2024-02-04T11:14:55;1.10;;;1.00;;
11121;SDS011;5615;49.304;10.576;2024-02-04T11:23:41;1.33;;;1.00;;
11121;SDS011;5615;49.304;10.576;2024-02-04T11:26:15;1.03;;;0.97;;
11121;SDS011;5615;49.304;10.576;2024-02-04T11:28:42;0.90;;;0.90;;
11121;SDS011;5615;49.304;10.576;2024-02-04T11:31:13;1.13;;;0.90;;
11121;SDS011;5615;49.304;10.576;2024-02-04T11:33:42;1.00;;;0.90;;
11121;SDS011;5615;49.304;10.576;2024-02-04T11:36:12;1.20;;;1.00;;
11121;SDS011;5615;49.304;10.576;2024-02-04T11:38:39;1.00;;;0.90;;
11121;SDS011;5615;49.304;10.576;2024-02-04T11:41:06;1.10;;;1.00;;
11121;SDS011;5615;49.304;10.576;2024-02-04T11:43:33;1.10;;;1.00;;
11121;SDS011;5615;49.304;10.576;2024-02-04T11:46:02;0.90;;;0.90;;
11121;SDS011;5615;49.304;10.576;2024-02-04T11:48:29;1.00;;;0.83;;
11121;SDS011;5615;49.304;10.576;2024-02-04T11:50:58;1.20;;;0.90;;
11121;SDS011;5615;49.304;10.576;2024-02-04T11:53:26;1.27;;;1.00;;
11121;SDS011;5615;49.304;10.576;2024-02-04T11:55:56;1.10;;;1.00;;
11121;SDS011;5615;49.304;10.576;2024-02-04T11:58:24;1.30;;;0.97;;
11121;SDS011;5615;49.304;10.576;2024-02-04T12:00:51;1.00;;;0.90;;
11121;SDS011;5615;49.304;10.576;2024-02-04T12:03:28;0.97;;;0.90;;
11121;SDS011;5615;49.304;10.576;2024-02-04T12:05:55;1.23;;;0.93;;
11121;SDS011;5615;49.304;10.576;2024-02-04T12:08:24;1.07;;;0.97;;
11121;SDS011;5615;49.304;10.576;2024-02-04T12:10:51;1.23;;;1.10;;
11121;SDS011;5615;49.304;10.576;2024-02-04T12:13:18;1.07;;;0.93;;
11121;SDS011;5615;49.304;10.576;2024-02-04T12:15:45;1.10;;;1.00;;
11121;SDS011;5615;49.304;10.576;2024-02-04T12:18:13;1.20;;;1.10;;
11121;SDS011;5615;49.304;10.576;2024-02-04T12:20:43;0.83;;;0.83;;
11121;SDS011;5615;49.304;10.576;2024-02-04T12:23:10;0.80;;;0.80;;
11121;SDS011;5615;49.304;10.576;2024-02-04T12:25:38;1.10;;;1.00;;
11121;SDS011;5615;49.304;10.576;2024-02-04T12:28:05;1.10;;;1.00;;
11121;SDS011;5615;49.304;10.576;2024-02-04T12:30:32;1.00;;;0.90;;
11121;SDS011;5615;49.304;10.576;2024-02-04T12:32:59;1.63;;;1.23;;
11121;SDS011;5615;49.304;10.576;2024-02-04T12:35:27;0.93;;;0.90;;
11121;SDS011;5615;49.304;10.576;2024-02-04T12:37:54;1.00;;;0.90;;
11121;SDS011;5615;49.304;10.576;2024-02-04T12:40:22;1.00;;;0.90;;
11121;SDS011;5615;49.304;10.576;2024-02-04T12:42:54;1.07;;;0.97;;
11121;SDS011;5615;49.304;10.576;2024-02-04T12:45:22;0.83;;;0.80;;
11121;SDS011;5615;49.304;10.576;2024-02-04T12:47:49;1.10;;;1.00;;
11121;SDS011;5615;49.304;10.576;2024-02-04T12:50:16;0.93;;;0.80;;
11121;SDS011;5615;49.304;10.576;2024-02-04T12:52:44;0.77;;;0.77;;
11121;SDS011;5615;49.304;10.576;2024-02-04T12:55:19;1.77;;;1.10;;
11121;SDS011;5615;49.304;10.576;2024-02-04T12:57:46;0.70;;;0.70;;
11121;SDS011;5615;49.304;10.576;2024-02-04T13:00:17;0.90;;;0.90;;
11121;SDS011;5615;49.304;10.576;2024-02-04T13:02:44;0.90;;;0.90;;
11121;SDS011;5615;49.304;10.576;2024-02-04T13:05:20;1.00;;;0.93;;
11121;SDS011;5615;49.304;10.576;2024-02-04T13:07:50;0.80;;;0.80;;
11121;SDS011;5615;49.304;10.576;2024-02-04T13:10:20;0.90;;;0.90;;
11121;SDS011;5615;49.304;10.576;2024-02-04T13:12:57;1.20;;;1.10;;
11121;SDS011;5615;49.304;10.576;2024-02-04T13:15:26;0.80;;;0.80;;
11121;SDS011;5615;49.304;10.576;2024-02-04T13:17:53;1.30;;;1.17;;
11121;SDS011;5615;49.304;10.576;2024-02-04T13:20:19;1.00;;;0.90;;
11121;SDS011;5615;49.304;10.576;2024-02-04T13:22:46;1.00;;;0.90;;
11121;SDS011;5615;49.304;10.576;2024-02-04T13:25:13;0.90;;;0.90;;
11121;SDS011;5615;49.304;10.576;2024-02-04T13:27:40;1.73;;;0.93;;
11121;SDS011;5615;49.304;10.576;2024-02-04T13:30:07;1.17;;;0.90;;
11121;SDS011;5615;49.304;10.576;2024-02-04T13:32:38;1.00;;;1.00;;
11121;SDS011;5615;49.304;10.576;2024-02-04T13:35:05;0.90;;;0.87;;
11121;SDS011;5615;49.304;10.576;2024-02-04T13:37:33;1.10;;;1.00;;
11121;SDS011;5615;49.304;10.576;2024-02-04T13:40:01;1.23;;;1.13;;
11121;SDS011;5615;49.304;10.576;2024-02-04T13:42:29;1.10;;;1.00;;
11121;SDS011;5615;49.304;10.576;2024-02-04T13:44:55;2.07;;;1.00;;
11121;SDS011;5615;49.304;10.576;2024-02-04T13:47:22;0.87;;;0.87;;
11121;SDS011;5615;49.304;10.576;2024-02-04T13:49:50;1.33;;;1.23;;
11121;SDS011;5615;49.304;10.576;2024-02-04T13:52:17;1.30;;;1.20;;
11121;SDS011;5615;49.304;10.576;2024-02-04T13:54:43;1.33;;;1.17;;
11121;SDS011;5615;49.304;10.576;2024-02-04T13:57:10;1.00;;;1.00;;
11121;SDS011;5615;49.304;10.576;2024-02-04T13:59:37;2.00;;;1.17;;
11121;SDS011;5615;49.304;10.576;2024-02-04T14:02:03;3.33;;;1.20;;
11121;SDS011;5615;49.304;10.576;2024-02-04T14:04:30;2.93;;;1.33;;
11121;SDS011;5615;49.304;10.576;2024-02-04T14:06:59;1.30;;;1.20;;
11121;SDS011;5615;49.304;10.576;2024-02-04T14:09:26;1.30;;;1.20;;
11121;SDS011;5615;49.304;10.576;2024-02-04T14:11:52;1.30;;;1.20;;
11121;SDS011;5615;49.304;10.576;2024-02-04T14:14:20;2.13;;;1.50;;
11121;SDS011;5615;49.304;10.576;2024-02-04T14:16:46;1.00;;;1.00;;
11121;SDS011;5615;49.304;10.576;2024-02-04T14:19:13;1.47;;;1.30;;
11121;SDS011;5615;49.304;10.576;2024-02-04T14:21:40;1.20;;;1.10;;
11121;SDS011;5615;49.304;10.576;2024-02-04T14:24:08;2.13;;;1.50;;
11121;SDS011;5615;49.304;10.576;2024-02-04T14:26:35;1.40;;;1.30;;
11121;SDS011;5615;49.304;10.576;2024-02-04T14:29:02;1.60;;;1.50;;
11121;SDS011;5615;49.304;10.576;2024-02-04T14:31:28;2.20;;;1.70;;
11121;SDS011;5615;49.304;10.576;2024-02-04T14:33:55;1.60;;;1.50;;
11121;SDS011;5615;49.304;10.576;2024-02-04T14:36:22;2.13;;;1.70;;
11121;SDS011;5615;49.304;10.576;2024-02-04T14:38:48;1.90;;;1.80;;
11121;SDS011;5615;49.304;10.576;2024-02-04T14:41:17;2.10;;;1.90;;
11121;SDS011;5615;49.304;10.576;2024-02-04T14:43:44;2.30;;;1.97;;
11121;SDS011;5615;49.304;10.576;2024-02-04T14:46:10;2.30;;;2.10;;
11121;SDS011;5615;49.304;10.576;2024-02-04T14:48:37;1.93;;;1.83;;
11121;SDS011;5615;49.304;10.576;2024-02-04T14:51:04;2.20;;;2.00;;
11121;SDS011;5615;49.304;10.576;2024-02-04T14:53:31;2.33;;;2.13;;
11121;SDS011;5615;49.304;10.576;2024-02-04T14:55:58;2.13;;;1.93;;